Time;durP1;ratioP1;P1;durP2;ratioP2;P2;SDS_P1;SDS_P2;PMS_P1;PMS_P2;Temp;Humidity;BMP_temperature;BMP_pressure;BME280_temperature;BME280_humidity;BME280_pressure;Samples;Min_cycle;Max_cycle;Signal;HPM_P1;HPM_P2
2021/12/03 00:01:25;;;;;;;14.27;9.18;;;;;;;;;;5114934;28;20104;-30
2021/12/03 00:03:51;;;;;;;12.40;8.48;;;;;;;;;;5114571;28;20054;-32
2021/12/03 00:06:18;;;;;;;13.80;7.80;;;;;;;;;;5115067;28;20036;-32
2021/12/03 00:08:44;;;;;;;11.63;7.88;;;;;;;;;;5113762;28;20119;-29
2021/12/03 00:11:11;;;;;;;14.63;8.93;;;;;;;;;;5115014;28;20065;-29
2021/12/03 00:13:38;;;;;;;12.88;7.75;;;;;;;;;;5113870;27;20051;-28
2021/12/03 00:16:04;;;;;;;12.70;8.65;;;;;;;;;;5114301;28;20063;-30
2021/12/03 00:18:31;;;;;;;15.40;11.88;;;;;;;;;;5114585;28;20040;-31
2021/12/03 00:20:57;;;;;;;13.38;9.50;;;;;;;;;;5114219;28;20136;-30
2021/12/03 00:23:28;;;;;;;10.02;8.98;;;;;;;;;;5113904;28;20404;-33
2021/12/03 00:25:54;;;;;;;13.02;9.23;;;;;;;;;;5113743;28;20385;-30
2021/12/03 00:28:20;;;;;;;13.68;10.43;;;;;;;;;;5114217;28;20044;-31
2021/12/03 00:30:46;;;;;;;17.00;9.98;;;;;;;;;;5113635;28;20120;-28
2021/12/03 00:33:12;;;;;;;14.65;11.70;;;;;;;;;;5113998;28;20051;-32
2021/12/03 00:35:38;;;;;;;18.77;13.00;;;;;;;;;;5113307;28;20039;-31
2021/12/03 00:38:05;;;;;;;17.00;9.98;;;;;;;;;;5113644;28;20079;-28
2021/12/03 00:40:32;;;;;;;15.02;9.90;;;;;;;;;;5113892;28;20080;-30
2021/12/03 00:42:58;;;;;;;13.65;10.27;;;;;;;;;;5113988;28;20322;-33
2021/12/03 00:45:25;;;;;;;15.77;10.07;;;;;;;;;;5112571;28;20039;-27
2021/12/03 00:47:51;;;;;;;12.93;9.15;;;;;;;;;;5114163;28;20369;-27
2021/12/03 00:50:18;;;;;;;14.38;9.70;;;;;;;;;;5114075;28;20445;-27
2021/12/03 00:52:44;;;;;;;13.35;10.27;;;;;;;;;;5113405;28;20409;-31
2021/12/03 00:55:11;;;;;;;15.43;9.63;;;;;;;;;;5113985;28;20138;-27
2021/12/03 00:57:38;;;;;;;15.57;10.57;;;;;;;;;;5113134;28;20123;-30
2021/12/03 01:00:09;;;;;;;15.45;11.13;;;;;;;;;;5112537;28;20044;-29
2021/12/03 01:02:35;;;;;;;13.07;10.60;;;;;;;;;;5113219;28;20071;-32
2021/12/03 01:05:01;;;;;;;17.23;11.15;;;;;;;;;;5113140;28;20039;-29
2021/12/03 01:07:27;;;;;;;15.65;11.73;;;;;;;;;;5113919;28;20051;-30
2021/12/03 01:09:53;;;;;;;13.98;11.68;;;;;;;;;;5111977;28;20397;-27
2021/12/03 01:12:19;;;;;;;15.02;11.90;;;;;;;;;;5113307;28;20050;-28
2021/12/03 01:14:45;;;;;;;15.40;12.05;;;;;;;;;;5112910;28;20044;-31
2021/12/03 01:17:11;;;;;;;17.55;13.40;;;;;;;;;;5113179;28;20122;-31
2021/12/03 01:19:37;;;;;;;21.23;12.82;;;;;;;;;;5112964;28;20572;-32
2021/12/03 01:22:04;;;;;;;15.73;11.73;;;;;;;;;;5113124;28;20042;-33
2021/12/03 01:24:31;;;;;;;18.25;12.68;;;;;;;;;;5113059;28;20039;-27
2021/12/03 01:26:57;;;;;;;19.23;13.32;;;;;;;;;;5113413;28;20126;-29
2021/12/03 01:29:23;;;;;;;21.30;14.20;;;;;;;;;;5113116;28;20066;-32
2021/12/03 01:31:51;;;;;;;19.50;14.10;;;;;;;;;;5112864;28;20039;-29
2021/12/03 01:34:17;;;;;;;20.98;15.13;;;;;;;;;;5112541;28;20397;-30
2021/12/03 01:36:44;;;;;;;22.23;16.00;;;;;;;;;;5113220;28;20035;-33
2021/12/03 01:39:12;;;;;;;24.13;16.52;;;;;;;;;;5113704;28;20122;-34
2021/12/03 01:41:38;;;;;;;23.52;16.27;;;;;;;;;;5113582;28;20096;-31
2021/12/03 01:44:04;;;;;;;27.20;19.27;;;;;;;;;;5113624;28;20036;-28
2021/12/03 01:46:31;;;;;;;30.45;18.48;;;;;;;;;;5113583;28;20511;-28
2021/12/03 01:48:57;;;;;;;21.95;16.85;;;;;;;;;;5112951;28;20264;-31
2021/12/03 01:54:53;;;;;;;31.70;21.25;;;;;;;;;;5111456;28;20128;-29
2021/12/03 02:07:45;;;;;;;32.80;23.30;;;;;;;;;;5149971;27;20471;-31
2021/12/03 02:31:01;;;;;;;35.20;24.85;;;;;;;;;;5152946;27;20042;-32
2021/12/03 02:33:27;;;;;;;30.83;22.98;;;;;;;;;;5140493;27;20043;-33
2021/12/03 02:36:00;;;;;;;30.50;24.23;;;;;;;;;;5132851;27;20046;-28
2021/12/03 02:38:26;;;;;;;30.80;23.33;;;;;;;;;;5133189;27;20035;-30
2021/12/03 02:40:53;;;;;;;33.88;24.63;;;;;;;;;;5133552;27;20046;-29
2021/12/03 02:43:20;;;;;;;29.48;22.83;;;;;;;;;;5133427;27;20099;-33
2021/12/03 02:45:46;;;;;;;29.63;22.70;;;;;;;;;;5133099;27;20041;-32
2021/12/03 02:48:12;;;;;;;30.60;23.88;;;;;;;;;;5133372;27;20043;-32
2021/12/03 02:50:38;;;;;;;30.85;23.88;;;;;;;;;;5133488;27;20067;-28
2021/12/03 02:53:05;;;;;;;33.58;23.67;;;;;;;;;;5133261;27;20403;-33
2021/12/03 02:55:31;;;;;;;30.52;24.55;;;;;;;;;;5114050;27;20043;-33
2021/12/03 02:57:57;;;;;;;33.95;24.30;;;;;;;;;;5133357;27;20108;-30
2021/12/03 03:00:24;;;;;;;33.40;23.90;;;;;;;;;;5114527;27;20047;-32
2021/12/03 03:02:51;;;;;;;30.65;23.52;;;;;;;;;;5132739;27;20043;-32
2021/12/03 03:05:18;;;;;;;30.70;24.25;;;;;;;;;;5132161;27;20137;-30
2021/12/03 03:07:44;;;;;;;32.72;25.25;;;;;;;;;;5132846;27;20488;-28
2021/12/03 03:10:14;;;;;;;29.63;23.63;;;;;;;;;;5132782;27;20035;-29
2021/12/03 03:12:40;;;;;;;28.67;22.85;;;;;;;;;;5132638;27;20143;-30
2021/12/03 03:15:07;;;;;;;29.02;22.08;;;;;;;;;;5132431;27;20050;-29
2021/12/03 03:17:33;;;;;;;27.48;23.05;;;;;;;;;;5132705;27;20476;-28
2021/12/03 03:20:02;;;;;;;27.65;23.38;;;;;;;;;;5133079;27;20039;-30
2021/12/03 03:22:28;;;;;;;27.92;23.35;;;;;;;;;;5132995;28;20074;-29
2021/12/03 03:24:55;;;;;;;31.20;22.80;;;;;;;;;;5133216;28;20035;-30
2021/12/03 03:27:21;;;;;;;27.67;22.52;;;;;;;;;;5132633;28;20125;-32
2021/12/03 03:29:48;;;;;;;30.77;22.67;;;;;;;;;;5132652;28;20081;-28
2021/12/03 03:32:15;;;;;;;29.17;23.63;;;;;;;;;;5132791;27;20055;-30
2021/12/03 03:34:41;;;;;;;29.08;23.17;;;;;;;;;;5132964;28;20065;-28
2021/12/03 03:37:08;;;;;;;27.17;21.08;;;;;;;;;;5132851;28;20080;-29
2021/12/03 03:39:34;;;;;;;31.90;23.33;;;;;;;;;;5132917;28;20031;-30
2021/12/03 03:42:00;;;;;;;30.05;24.08;;;;;;;;;;5132112;28;20073;-28
2021/12/03 03:44:26;;;;;;;27.10;24.02;;;;;;;;;;5131741;28;20499;-28
2021/12/03 03:46:52;;;;;;;27.60;22.45;;;;;;;;;;5131633;28;20050;-28
2021/12/03 03:49:19;;;;;;;28.25;22.98;;;;;;;;;;5131596;28;20395;-29
2021/12/03 03:51:46;;;;;;;30.52;23.05;;;;;;;;;;5131312;28;20046;-30
2021/12/03 03:54:12;;;;;;;27.48;24.45;;;;;;;;;;5112445;28;20047;-30
2021/12/03 03:56:38;;;;;;;31.95;24.05;;;;;;;;;;5131405;28;20069;-29
2021/12/03 03:59:05;;;;;;;28.50;23.83;;;;;;;;;;5131474;28;20046;-34
2021/12/03 04:01:31;;;;;;;29.98;24.65;;;;;;;;;;5132036;28;20039;-33
2021/12/03 04:03:57;;;;;;;27.75;23.95;;;;;;;;;;5131335;28;20479;-32
2021/12/03 04:06:23;;;;;;;27.45;24.52;;;;;;;;;;5131227;28;20035;-29
2021/12/03 04:08:49;;;;;;;28.25;24.13;;;;;;;;;;5131892;28;20168;-33
2021/12/03 04:11:17;;;;;;;28.52;23.73;;;;;;;;;;5136647;22;20047;-31
2021/12/03 04:13:43;;;;;;;29.77;24.27;;;;;;;;;;5072165;28;20041;-30
2021/12/03 04:16:10;;;;;;;30.77;25.48;;;;;;;;;;5073837;28;20440;-31
2021/12/03 04:18:36;;;;;;;26.98;23.77;;;;;;;;;;5091505;28;20039;-32
2021/12/03 04:21:02;;;;;;;29.52;25.13;;;;;;;;;;5093237;28;20048;-33
2021/12/03 04:23:28;;;;;;;30.90;25.52;;;;;;;;;;5093869;28;20036;-32
2021/12/03 04:25:54;;;;;;;27.52;23.67;;;;;;;;;;5094106;28;20079;-33
2021/12/03 04:28:21;;;;;;;29.92;23.65;;;;;;;;;;5093916;28;20043;-32
2021/12/03 04:30:47;;;;;;;27.02;24.13;;;;;;;;;;5094299;28;20036;-33
2021/12/03 04:33:14;;;;;;;29.10;23.48;;;;;;;;;;5093580;28;20047;-31
2021/12/03 04:35:40;;;;;;;35.97;27.38;;;;;;;;;;5093360;28;20123;-31
2021/12/03 04:38:06;;;;;;;29.13;25.00;;;;;;;;;;5093785;28;20420;-31
2021/12/03 04:40:33;;;;;;;30.13;24.85;;;;;;;;;;5093903;28;20480;-31
2021/12/03 04:42:59;;;;;;;32.20;24.73;;;;;;;;;;5094041;28;20500;-34
2021/12/03 04:45:26;;;;;;;31.95;25.38;;;;;;;;;;5058465;28;20074;-29
2021/12/03 04:47:53;;;;;;;28.73;24.67;;;;;;;;;;5093169;28;20044;-29
2021/12/03 04:50:21;;;;;;;31.58;25.42;;;;;;;;;;5075335;28;20044;-30
2021/12/03 04:52:47;;;;;;;31.17;25.85;;;;;;;;;;5094341;28;20539;-28
2021/12/03 04:55:14;;;;;;;35.13;25.85;;;;;;;;;;5094961;28;20097;-32
2021/12/03 04:57:41;;;;;;;33.65;26.35;;;;;;;;;;5095115;28;20604;-30
2021/12/03 05:00:10;;;;;;;31.80;25.42;;;;;;;;;;5095126;28;20506;-29
2021/12/03 05:02:36;;;;;;;30.50;24.23;;;;;;;;;;5094570;28;20043;-30
2021/12/03 05:05:05;;;;;;;33.00;26.55;;;;;;;;;;5093572;28;20071;-33
2021/12/03 05:10:03;;;;;;;35.90;24.65;;;;;;;;;;5093823;28;20054;-32
2021/12/03 05:12:29;;;;;;;29.90;25.73;;;;;;;;;;5093447;28;20043;-32
2021/12/03 05:14:55;;;;;;;32.28;24.98;;;;;;;;;;5093334;28;20167;-32
2021/12/03 05:17:21;;;;;;;30.77;24.73;;;;;;;;;;5092778;28;20040;-34
2021/12/03 05:19:48;;;;;;;32.30;26.83;;;;;;;;;;5090550;28;20067;-34
2021/12/03 05:22:14;;;;;;;32.45;26.38;;;;;;;;;;5080396;28;20036;-34
2021/12/03 05:24:42;;;;;;;35.80;25.40;;;;;;;;;;5075581;28;20527;-32
2021/12/03 05:30:26;;;;;;;31.08;26.48;;;;;;;;;;5072071;28;20052;-34
2021/12/03 05:36:23;;;;;;;37.35;27.38;;;;;;;;;;5082417;28;20039;-33
2021/12/03 05:38:49;;;;;;;35.78;28.13;;;;;;;;;;5090198;28;20098;-33
2021/12/03 05:51:25;;;;;;;38.13;27.35;;;;;;;;;;5091263;28;20031;-28
2021/12/03 05:56:58;;;;;;;35.50;25.65;;;;;;;;;;5091546;28;20501;-32
2021/12/03 05:59:24;;;;;;;40.67;27.40;;;;;;;;;;5092204;28;20468;-32
2021/12/03 06:01:51;;;;;;;37.47;27.08;;;;;;;;;;5077213;28;20052;-33
2021/12/03 06:04:50;;;;;;;38.60;27.70;;;;;;;;;;5070583;28;20032;-32
2021/12/03 06:07:17;;;;;;;35.75;26.08;;;;;;;;;;5071342;28;20048;-36
2021/12/03 06:09:45;;;;;;;40.50;28.63;;;;;;;;;;5053382;28;20591;-33
2021/12/03 06:12:11;;;;;;;37.22;27.00;;;;;;;;;;5082235;28;20122;-32
2021/12/03 06:14:44;;;;;;;41.15;29.25;;;;;;;;;;5073641;28;20044;-31
2021/12/03 06:24:01;;;;;;;40.28;24.42;;;;;;;;;;5090835;28;20209;-30
2021/12/03 06:26:27;;;;;;;34.72;24.02;;;;;;;;;;5091938;28;20044;-30
2021/12/03 06:28:59;;;;;;;36.38;24.50;;;;;;;;;;5091871;28;20135;-29
2021/12/03 06:31:25;;;;;;;36.35;25.05;;;;;;;;;;5091881;28;20550;-32
2021/12/03 06:33:55;;;;;;;34.85;24.70;;;;;;;;;;5090780;28;20036;-32
2021/12/03 06:36:21;;;;;;;36.97;25.52;;;;;;;;;;5075397;28;20064;-32
2021/12/03 06:38:47;;;;;;;38.05;25.10;;;;;;;;;;5082505;28;20048;-31
2021/12/03 06:41:13;;;;;;;39.00;25.10;;;;;;;;;;5092053;28;20039;-32
2021/12/03 06:43:39;;;;;;;37.30;23.15;;;;;;;;;;5089071;28;20047;-30
2021/12/03 06:46:08;;;;;;;34.83;23.20;;;;;;;;;;5090269;28;20123;-29
2021/12/03 06:48:34;;;;;;;35.47;23.55;;;;;;;;;;5069802;28;20047;-34
2021/12/03 06:51:41;;;;;;;34.35;23.63;;;;;;;;;;5070253;28;20439;-31
2021/12/03 07:00:39;;;;;;;40.05;26.23;;;;;;;;;;5071106;28;20405;-29
2021/12/03 07:03:05;;;;;;;39.00;24.98;;;;;;;;;;5071148;28;20041;-29
2021/12/03 07:05:31;;;;;;;37.33;23.65;;;;;;;;;;5071079;28;20040;-29
2021/12/03 07:07:57;;;;;;;37.03;24.23;;;;;;;;;;5077379;28;20035;-31
2021/12/03 07:10:23;;;;;;;41.88;25.65;;;;;;;;;;5091202;28;20075;-31
2021/12/03 07:12:50;;;;;;;39.05;24.80;;;;;;;;;;5090710;28;20036;-31
2021/12/03 07:15:16;;;;;;;40.10;25.60;;;;;;;;;;5090736;28;20050;-31
2021/12/03 07:17:42;;;;;;;37.33;23.73;;;;;;;;;;5070707;28;20040;-31
2021/12/03 07:20:09;;;;;;;39.28;25.05;;;;;;;;;;5073871;28;20040;-31
2021/12/03 07:22:35;;;;;;;38.83;25.00;;;;;;;;;;5089440;28;20048;-32
2021/12/03 07:25:01;;;;;;;41.92;27.17;;;;;;;;;;5090374;28;20158;-32
2021/12/03 07:27:27;;;;;;;49.08;27.45;;;;;;;;;;5090790;28;20105;-28
2021/12/03 07:29:53;;;;;;;50.17;30.95;;;;;;;;;;5090186;28;20040;-30
2021/12/03 07:32:21;;;;;;;46.03;27.23;;;;;;;;;;5089745;28;20122;-33
2021/12/03 07:34:47;;;;;;;46.58;27.58;;;;;;;;;;5085369;28;20048;-32
2021/12/03 07:37:14;;;;;;;48.60;27.92;;;;;;;;;;5086044;28;20505;-32
2021/12/03 07:39:40;;;;;;;42.97;26.90;;;;;;;;;;5085483;28;20040;-31
2021/12/03 07:42:06;;;;;;;50.08;28.08;;;;;;;;;;5076541;28;20413;-32
2021/12/03 07:44:32;;;;;;;46.80;28.08;;;;;;;;;;5087222;28;20047;-32
2021/12/03 07:46:58;;;;;;;42.90;26.10;;;;;;;;;;5088584;28;20227;-33
2021/12/03 07:49:26;;;;;;;51.30;30.20;;;;;;;;;;5089870;28;20090;-30
2021/12/03 07:51:52;;;;;;;46.67;27.83;;;;;;;;;;5072136;28;20130;-28
2021/12/03 07:54:21;;;;;;;62.13;34.25;;;;;;;;;;5091693;28;20473;-29
2021/12/03 07:56:47;;;;;;;47.97;28.80;;;;;;;;;;5094447;28;20043;-30
2021/12/03 07:59:17;;;;;;;54.17;32.13;;;;;;;;;;5094258;28;20127;-28
2021/12/03 08:01:48;;;;;;;48.28;29.42;;;;;;;;;;5093753;28;20050;-30
2021/12/03 08:04:15;;;;;;;50.40;28.33;;;;;;;;;;5092167;28;20052;-29
2021/12/03 08:06:45;;;;;;;53.40;31.05;;;;;;;;;;5085874;28;20032;-34
2021/12/03 08:09:11;;;;;;;48.55;27.67;;;;;;;;;;5084773;28;20044;-32
2021/12/03 08:11:37;;;;;;;56.30;31.10;;;;;;;;;;5080881;28;20081;-32
2021/12/03 08:14:03;;;;;;;53.55;33.47;;;;;;;;;;5092101;28;20404;-34
2021/12/03 08:16:29;;;;;;;61.80;32.90;;;;;;;;;;5084148;28;20040;-32
2021/12/03 08:18:55;;;;;;;58.70;33.35;;;;;;;;;;5077657;28;20044;-33
2021/12/03 08:21:24;;;;;;;57.53;32.80;;;;;;;;;;5089175;28;20062;-34
2021/12/03 08:23:50;;;;;;;62.42;33.53;;;;;;;;;;5087412;28;20040;-31
2021/12/03 08:26:17;;;;;;;59.83;31.70;;;;;;;;;;5079355;28;20040;-33
2021/12/03 08:28:44;;;;;;;63.95;34.47;;;;;;;;;;5091734;28;20036;-33
2021/12/03 08:31:14;;;;;;;65.75;35.28;;;;;;;;;;5080958;28;20836;-33
2021/12/03 08:33:40;;;;;;;67.95;34.70;;;;;;;;;;5075200;28;20048;-35
2021/12/03 08:36:06;;;;;;;67.30;33.78;;;;;;;;;;5072642;28;20048;-34
2021/12/03 08:38:35;;;;;;;61.85;34.20;;;;;;;;;;5079804;28;20036;-32
2021/12/03 08:41:01;;;;;;;65.35;33.65;;;;;;;;;;5083850;28;20572;-33
2021/12/03 08:43:27;;;;;;;66.05;34.78;;;;;;;;;;5088915;28;20089;-27
2021/12/03 08:45:55;;;;;;;70.28;34.45;;;;;;;;;;5093394;28;20373;-29
2021/12/03 08:48:23;;;;;;;68.03;35.00;;;;;;;;;;5083910;28;20341;-32
2021/12/03 08:50:53;;;;;;;73.00;35.47;;;;;;;;;;5068282;28;20108;-28
2021/12/03 08:55:48;;;;;;;72.45;34.65;;;;;;;;;;5072063;28;20131;-29
2021/12/03 08:58:16;;;;;;;72.35;36.75;;;;;;;;;;5072920;28;20037;-33
2021/12/03 09:00:43;;;;;;;66.13;36.47;;;;;;;;;;5055186;28;20447;-29
2021/12/03 09:03:11;;;;;;;66.05;33.90;;;;;;;;;;5073121;28;20501;-27
2021/12/03 09:05:38;;;;;;;64.07;32.00;;;;;;;;;;5072334;28;20401;-29
2021/12/03 09:08:04;;;;;;;71.68;35.53;;;;;;;;;;5072778;28;20444;-27
2021/12/03 09:10:30;;;;;;;66.72;32.00;;;;;;;;;;5073115;28;20464;-28
2021/12/03 09:12:56;;;;;;;69.53;35.42;;;;;;;;;;5072294;28;20075;-28
2021/12/03 09:15:28;;;;;;;67.47;33.75;;;;;;;;;;5072754;28;20071;-28
2021/12/03 09:22:51;;;;;;;66.60;32.20;;;;;;;;;;5072381;28;20390;-29
2021/12/03 09:25:22;;;;;;;58.35;29.13;;;;;;;;;;5072265;28;20094;-28
2021/12/03 09:27:48;;;;;;;62.75;32.22;;;;;;;;;;5072088;28;20409;-29
2021/12/03 09:30:15;;;;;;;59.47;28.10;;;;;;;;;;5072553;28;20076;-30
2021/12/03 09:32:46;;;;;;;56.25;27.77;;;;;;;;;;5072708;28;20068;-28
2021/12/03 09:35:12;;;;;;;47.50;26.92;;;;;;;;;;5072832;28;20119;-28
2021/12/03 09:37:38;;;;;;;49.60;27.30;;;;;;;;;;5072417;28;20037;-28
2021/12/03 09:40:08;;;;;;;53.60;26.77;;;;;;;;;;5072724;28;20079;-28
2021/12/03 09:42:39;;;;;;;59.67;27.98;;;;;;;;;;5072340;28;20037;-28
2021/12/03 09:45:10;;;;;;;48.03;25.83;;;;;;;;;;5073098;28;20588;-28
2021/12/03 09:47:39;;;;;;;45.50;24.08;;;;;;;;;;5072712;28;20135;-29
2021/12/03 09:50:12;;;;;;;49.58;26.13;;;;;;;;;;5072128;28;20127;-28
2021/12/03 09:53:01;;;;;;;54.05;27.42;;;;;;;;;;5072327;28;20508;-28
2021/12/03 09:55:28;;;;;;;50.33;23.85;;;;;;;;;;5071995;28;20072;-30
2021/12/03 10:07:23;;;;;;;48.75;24.27;;;;;;;;;;5072041;28;20175;-29
2021/12/03 10:11:56;;;;;;;42.42;21.95;;;;;;;;;;5072103;28;20111;-30
2021/12/03 10:14:49;;;;;;;33.22;18.40;;;;;;;;;;5080297;28;20036;-33
2021/12/03 10:17:41;;;;;;;35.88;18.58;;;;;;;;;;5058528;28;20036;-30
2021/12/03 10:25:24;;;;;;;35.45;17.80;;;;;;;;;;5073824;28;20431;-28
2021/12/03 10:28:28;;;;;;;35.13;17.45;;;;;;;;;;5092365;28;20529;-28
2021/12/03 10:33:59;;;;;;;31.67;15.73;;;;;;;;;;5091876;28;20381;-29
2021/12/03 10:36:43;;;;;;;42.35;16.20;;;;;;;;;;5091962;28;20040;-28
2021/12/03 11:19:08;;;;;;;16.80;7.60;;;;;;;;;;5090802;28;20043;-30
2021/12/03 11:40:49;;;;;;;14.07;6.22;;;;;;;;;;5087180;28;20044;-29
2021/12/03 11:58:20;;;;;;;16.65;6.65;;;;;;;;;;5055867;28;20780;-34
2021/12/03 12:32:28;;;;;;;18.65;9.15;;;;;;;;;;5069325;28;20044;-31
2021/12/03 13:35:55;;;;;;;21.70;11.23;;;;;;;;;;5052822;28;20378;-27
2021/12/03 14:16:33;;;;;;;12.77;7.63;;;;;;;;;;5071723;28;20044;-28
2021/12/03 14:28:24;;;;;;;12.20;7.03;;;;;;;;;;5071655;28;20037;-30
2021/12/03 14:43:01;;;;;;;14.27;9.15;;;;;;;;;;5041686;28;20401;-30
2021/12/03 14:54:01;;;;;;;10.63;6.63;;;;;;;;;;5012642;28;20105;-29
2021/12/03 14:56:34;;;;;;;17.10;8.07;;;;;;;;;;5071123;28;20040;-33
2021/12/03 14:59:09;;;;;;;9.95;6.78;;;;;;;;;;5070666;28;20124;-28
2021/12/03 15:02:04;;;;;;;14.48;8.20;;;;;;;;;;5071306;28;20047;-31
2021/12/03 15:07:19;;;;;;;14.15;7.25;;;;;;;;;;5071452;28;20068;-28
2021/12/03 15:09:47;;;;;;;9.80;7.00;;;;;;;;;;5070952;28;20037;-31
2021/12/03 15:15:23;;;;;;;11.13;7.68;;;;;;;;;;5070519;28;20046;-30
2021/12/03 15:26:01;;;;;;;12.20;7.85;;;;;;;;;;5070497;28;20446;-29
2021/12/03 15:31:54;;;;;;;10.50;6.75;;;;;;;;;;5070452;28;20162;-31
2021/12/03 15:34:17;;;;;;;9.10;7.85;;;;;;;;;;5043684;28;20098;-29
2021/12/03 16:04:10;;;;;;;10.25;8.32;;;;;;;;;;5070530;28;20037;-28
2021/12/03 16:09:52;;;;;;;12.45;9.32;;;;;;;;;;5070824;28;20512;-30
2021/12/03 16:15:21;;;;;;;8.50;7.53;;;;;;;;;;5069989;28;20508;-30
2021/12/03 16:45:15;;;;;;;13.77;10.60;;;;;;;;;;5073340;28;20123;-29
2021/12/03 16:53:07;;;;;;;13.85;9.93;;;;;;;;;;5073179;28;20409;-29
2021/12/03 16:55:33;;;;;;;14.43;11.52;;;;;;;;;;5073411;28;20051;-30
2021/12/03 16:58:08;;;;;;;11.70;10.50;;;;;;;;;;5072966;28;20040;-29
2021/12/03 17:00:39;;;;;;;15.23;10.50;;;;;;;;;;5073166;28;20043;-30
2021/12/03 17:03:18;;;;;;;11.70;10.15;;;;;;;;;;5072659;28;20184;-28
2021/12/03 17:51:15;;;;;;;16.58;13.93;;;;;;;;;;5042364;28;20087;-85
2021/12/03 17:58:54;;;;;;;19.38;16.02;;;;;;;;;;5037688;28;20076;-84
2021/12/03 18:01:31;;;;;;;17.02;13.88;;;;;;;;;;5021511;28;20032;-84
2021/12/03 18:43:23;;;;;;;22.80;17.23;;;;;;;;;;5045371;28;20052;-85
2021/12/03 18:46:14;;;;;;;22.75;16.38;;;;;;;;;;5032916;28;20032;-86
2021/12/03 18:51:52;;;;;;;25.98;18.30;;;;;;;;;;5046726;28;20040;-86
2021/12/03 18:54:46;;;;;;;26.60;18.85;;;;;;;;;;5036640;28;20072;-86
2021/12/03 18:57:33;;;;;;;28.80;19.98;;;;;;;;;;5063296;28;20041;-85
2021/12/03 19:00:18;;;;;;;25.15;19.70;;;;;;;;;;5060674;28;20048;-86
2021/12/03 19:02:49;;;;;;;44.80;24.17;;;;;;;;;;5030287;28;20053;-85
2021/12/03 19:05:31;;;;;;;30.08;20.98;;;;;;;;;;5030856;28;20039;-86
2021/12/03 19:10:29;;;;;;;27.23;18.58;;;;;;;;;;5064889;28;20041;-85
2021/12/03 19:12:59;;;;;;;30.10;20.15;;;;;;;;;;5022659;28;20042;-86
2021/12/03 19:15:26;;;;;;;28.70;20.00;;;;;;;;;;5039940;28;20037;-85
2021/12/03 19:18:00;;;;;;;28.58;20.35;;;;;;;;;;5040872;28;20045;-85
2021/12/03 19:20:30;;;;;;;;;;;;;;;;;;5025974;28;20072;-85
2021/12/03 19:22:56;;;;;;;23.45;17.15;;;;;;;;;;5023288;28;19975;-86
2021/12/03 19:25:25;;;;;;;22.38;15.85;;;;;;;;;;5032841;28;20068;-85
2021/12/03 19:27:55;;;;;;;24.35;17.73;;;;;;;;;;5039622;28;20116;-86
2021/12/03 19:30:21;;;;;;;25.52;19.55;;;;;;;;;;5022843;28;20048;-86
2021/12/03 19:32:49;;;;;;;25.98;18.10;;;;;;;;;;5024338;28;20049;-87
2021/12/03 19:35:16;;;;;;;33.60;23.17;;;;;;;;;;5022478;28;20105;-84
2021/12/03 19:37:43;;;;;;;31.65;21.08;;;;;;;;;;5040157;28;20556;-85
2021/12/03 19:40:11;;;;;;;36.90;27.20;;;;;;;;;;5041413;28;20095;-85
2021/12/03 19:45:17;;;;;;;28.02;19.85;;;;;;;;;;5058369;28;20301;-84
2021/12/03 19:47:56;;;;;;;25.92;16.92;;;;;;;;;;5042233;28;20135;-85
2021/12/03 19:53:08;;;;;;;29.38;19.45;;;;;;;;;;5062748;28;20049;-84
2021/12/03 19:55:37;;;;;;;29.00;19.45;;;;;;;;;;5064537;28;20052;-84
2021/12/03 19:58:07;;;;;;;31.33;21.33;;;;;;;;;;5065351;28;20314;-84
2021/12/03 20:00:34;;;;;;;24.00;16.85;;;;;;;;;;5064252;28;20040;-84
2021/12/03 20:03:02;;;;;;;27.65;18.98;;;;;;;;;;5063786;28;20075;-85
2021/12/03 20:05:28;;;;;;;26.60;18.40;;;;;;;;;;5047584;28;20049;-85
2021/12/03 20:08:01;;;;;;;29.35;20.88;;;;;;;;;;5042213;28;20032;-84
2021/12/03 20:10:28;;;;;;;25.15;17.40;;;;;;;;;;5048772;28;20045;-85
2021/12/03 20:13:14;;;;;;;26.70;18.15;;;;;;;;;;5024344;28;20095;-86
2021/12/03 20:15:54;;;;;;;28.35;19.20;;;;;;;;;;5049102;28;20106;-85
2021/12/03 20:20:48;;;;;;;26.10;17.65;;;;;;;;;;5045601;28;20128;-84
2021/12/03 20:26:35;;;;;;;26.67;17.25;;;;;;;;;;5028694;28;20131;-85
2021/12/03 20:29:15;;;;;;;23.58;16.90;;;;;;;;;;5024918;28;20055;-86
2021/12/03 20:31:46;;;;;;;26.88;19.25;;;;;;;;;;5041029;28;20104;-85
2021/12/03 20:34:29;;;;;;;29.08;19.35;;;;;;;;;;5040476;28;20045;-86
2021/12/03 20:37:07;;;;;;;28.80;18.93;;;;;;;;;;5056279;28;20438;-84
2021/12/03 20:39:38;;;;;;;27.55;20.23;;;;;;;;;;5062848;28;20044;-85
2021/12/03 20:42:13;;;;;;;28.25;19.50;;;;;;;;;;5045579;28;20037;-85
2021/12/03 20:50:09;;;;;;;31.42;20.50;;;;;;;;;;5042278;28;20553;-88
2021/12/03 20:52:53;;;;;;;24.98;18.60;;;;;;;;;;5040922;28;20132;-85
2021/12/03 20:58:49;;;;;;;28.13;19.38;;;;;;;;;;5034062;28;20067;-84
2021/12/03 21:09:13;;;;;;;28.05;20.00;;;;;;;;;;5024097;28;20045;-84
2021/12/03 21:11:48;;;;;;;27.35;18.08;;;;;;;;;;5011519;28;20045;-85
2021/12/03 21:14:26;;;;;;;28.45;18.20;;;;;;;;;;5037472;28;20040;-85
2021/12/03 21:17:06;;;;;;;22.92;15.63;;;;;;;;;;5044528;28;20047;-84
2021/12/03 21:19:45;;;;;;;28.60;18.42;;;;;;;;;;5011234;28;20080;-84
2021/12/03 21:22:17;;;;;;;26.65;18.40;;;;;;;;;;5029017;28;20114;-84
2021/12/03 21:24:46;;;;;;;25.65;17.58;;;;;;;;;;5014165;28;20064;-84
2021/12/03 21:27:18;;;;;;;27.85;18.33;;;;;;;;;;5012192;28;20068;-84
2021/12/03 21:30:00;;;;;;;25.67;18.65;;;;;;;;;;5028718;28;20044;-84
2021/12/03 21:32:44;;;;;;;24.77;16.75;;;;;;;;;;5014538;28;20080;-84
2021/12/03 21:43:16;;;;;;;53.08;28.33;;;;;;;;;;5040135;28;20179;-85
2021/12/03 21:45:42;;;;;;;49.80;27.80;;;;;;;;;;5054545;28;20307;-85
2021/12/03 21:48:09;;;;;;;32.72;20.65;;;;;;;;;;5033832;28;20478;-85
2021/12/03 21:50:35;;;;;;;34.05;19.88;;;;;;;;;;5039720;28;20044;-85
2021/12/03 21:53:03;;;;;;;98.60;51.45;;;;;;;;;;5025476;28;20079;-85
2021/12/03 21:55:31;;;;;;;34.35;21.33;;;;;;;;;;5006020;28;20041;-84
2021/12/03 21:57:57;;;;;;;51.22;29.17;;;;;;;;;;5033943;28;20043;-84
2021/12/03 22:00:23;;;;;;;34.42;21.85;;;;;;;;;;5055843;28;20071;-84
2021/12/03 22:02:50;;;;;;;33.85;21.23;;;;;;;;;;5051174;28;20060;-84
2021/12/03 22:05:16;;;;;;;31.23;20.92;;;;;;;;;;5023363;28;20076;-84
2021/12/03 22:07:42;;;;;;;40.15;25.40;;;;;;;;;;5019367;28;20052;-84
2021/12/03 22:10:08;;;;;;;42.33;25.45;;;;;;;;;;5007289;28;20523;-85
2021/12/03 22:12:34;;;;;;;30.48;20.23;;;;;;;;;;5027408;28;20033;-84
2021/12/03 22:15:00;;;;;;;29.35;19.25;;;;;;;;;;5022742;28;20137;-85
2021/12/03 22:17:27;;;;;;;32.33;21.35;;;;;;;;;;5010245;28;20048;-85
2021/12/03 22:19:58;;;;;;;30.75;20.20;;;;;;;;;;5020243;28;20037;-84
2021/12/03 22:22:25;;;;;;;26.35;17.73;;;;;;;;;;5036735;28;20434;-85
2021/12/03 22:24:51;;;;;;;30.08;18.70;;;;;;;;;;5018960;28;20071;-84
2021/12/03 22:27:17;;;;;;;29.15;18.83;;;;;;;;;;5028269;28;20254;-84
2021/12/03 22:29:44;;;;;;;30.63;19.70;;;;;;;;;;5010075;28;20041;-84
2021/12/03 22:32:10;;;;;;;26.67;17.30;;;;;;;;;;5005246;28;20144;-84
2021/12/03 22:34:36;;;;;;;29.70;19.90;;;;;;;;;;5051646;28;20081;-85
2021/12/03 22:37:03;;;;;;;25.35;16.73;;;;;;;;;;5052239;28;20411;-85
2021/12/03 22:39:30;;;;;;;30.02;18.92;;;;;;;;;;5035189;28;20519;-85
2021/12/03 22:41:56;;;;;;;28.02;18.67;;;;;;;;;;5022653;28;20137;-85
2021/12/03 22:44:22;;;;;;;26.50;16.08;;;;;;;;;;5020111;28;20048;-86
2021/12/03 22:47:01;;;;;;;29.77;17.67;;;;;;;;;;5074002;28;20109;-86
2021/12/03 22:49:38;;;;;;;28.52;17.85;;;;;;;;;;5055347;28;20050;-86
2021/12/03 22:52:10;;;;;;;30.38;17.60;;;;;;;;;;5017396;28;20069;-85
2021/12/03 22:54:46;;;;;;;28.45;16.63;;;;;;;;;;5031907;28;20037;-86
2021/12/03 22:57:13;;;;;;;26.52;17.15;;;;;;;;;;5000492;28;20065;-85
2021/12/03 22:59:39;;;;;;;28.30;17.48;;;;;;;;;;5000402;28;20043;-86
2021/12/03 23:02:07;;;;;;;27.77;18.67;;;;;;;;;;5023747;28;20041;-85
2021/12/03 23:04:34;;;;;;;24.92;16.67;;;;;;;;;;5015069;28;20048;-85
2021/12/03 23:07:01;;;;;;;27.63;18.50;;;;;;;;;;5002647;28;20674;-85
2021/12/03 23:09:28;;;;;;;29.08;18.73;;;;;;;;;;5013182;28;20119;-85
2021/12/03 23:11:57;;;;;;;25.38;17.10;;;;;;;;;;5009263;28;20045;-83
2021/12/03 23:14:23;;;;;;;27.42;18.48;;;;;;;;;;5006705;28;20414;-84
2021/12/03 23:16:49;;;;;;;28.08;17.75;;;;;;;;;;5017779;28;20055;-84
2021/12/03 23:19:15;;;;;;;27.65;18.00;;;;;;;;;;5033567;28;20136;-84
2021/12/03 23:21:41;;;;;;;25.75;17.00;;;;;;;;;;5016678;28;20075;-84
2021/12/03 23:24:07;;;;;;;23.92;16.13;;;;;;;;;;5013199;28;20037;-84
2021/12/03 23:26:33;;;;;;;28.38;17.90;;;;;;;;;;5011846;28;20515;-84
2021/12/03 23:29:00;;;;;;;26.90;17.40;;;;;;;;;;5032941;28;20431;-84
2021/12/03 23:31:26;;;;;;;26.73;16.58;;;;;;;;;;5035401;28;20034;-84
2021/12/03 23:33:52;;;;;;;27.20;17.10;;;;;;;;;;5022757;28;20042;-84
2021/12/03 23:36:18;;;;;;;26.25;16.88;;;;;;;;;;5048111;28;20028;-84